Time,TemperatureF,DewpointF,PressureIn,WindDirection,WindDirectionDegrees,WindSpeedMPH,WindSpeedGustMPH,Humidity,HourlyPrecipIn,Conditions,Clouds,dailyrainin,SoftwareType,DateUTC
2013-09-24 00:07:00,44.8,41.0,30.03,SW,217,0.0,-999.0,87,-99.99,,,0.00,weatherlink.com 1.10,2013-09-24 04:07:00,
2013-09-24 00:23:00,44.9,41.0,30.03,SW,217,0.0,-999.0,87,-99.99,,,0.00,weatherlink.com 1.10,2013-09-24 04:23:00,
2013-09-24 00:38:00,45.0,41.0,30.02,SW,217,0.0,-999.0,87,-99.99,,,0.00,weatherlink.com 1.10,2013-09-24 04:38:00,
2013-09-24 00:53:00,44.9,41.0,30.02,SW,217,0.0,-999.0,87,-99.99,,,0.00,weatherlink.com 1.10,2013-09-24 04:53:00,
2013-09-24 01:08:00,44.9,42.0,30.02,SW,217,0.0,-999.0,88,-99.99,,,0.00,weatherlink.com 1.10,2013-09-24 05:08:00,
2013-09-24 01:23:00,45.0,41.0,30.02,South,188,0.0,-999.0,87,-99.99,,,0.00,weatherlink.com 1.10,2013-09-24 05:23:00,
2013-09-24 01:38:00,45.4,42.0,30.02,South,189,0.0,-999.0,86,-99.99,,,0.00,weatherlink.com 1.10,2013-09-24 05:38:00,
2013-09-24 01:53:00,45.2,41.0,30.02,ENE,69,3.0,-999.0,85,-99.99,,,0.00,weatherlink.com 1.10,2013-09-24 05:53:00,
2013-09-24 02:08:00,45.9,40.0,30.02,NW,317,0.0,-999.0,81,-99.99,,,0.00,weatherlink.com 1.10,2013-09-24 06:08:00,
2013-09-24 02:23:00,46.2,40.0,30.01,NNW,329,2.0,-999.0,78,-99.99,,,0.00,weatherlink.com 1.10,2013-09-24 06:23:00,
2013-09-24 02:38:00,46.5,39.0,30.01,NNW,333,3.0,-999.0,76,-99.99,,,0.00,weatherlink.com 1.10,2013-09-24 06:38:00,
2013-09-24 02:53:00,46.5,39.0,30.01,NNW,331,0.0,-999.0,76,-99.99,,,0.00,weatherlink.com 1.10,2013-09-24 06:53:00,
2013-09-24 03:08:00,46.4,39.0,30.01,NNW,342,4.0,-999.0,75,-99.99,,,0.00,weatherlink.com 1.10,2013-09-24 07:08:00,
2013-09-24 03:23:00,46.3,39.0,30.01,NW,315,3.0,-999.0,75,-99.99,,,0.00,weatherlink.com 1.10,2013-09-24 07:23:00,
2013-09-24 03:38:00,46.3,39.0,30.01,NNW,348,5.0,-999.0,75,-99.99,,,0.00,weatherlink.com 1.10,2013-09-24 07:38:00,
2013-09-24 03:53:00,46.2,39.0,30.01,NNW,345,1.0,-999.0,75,-99.99,,,0.00,weatherlink.com 1.10,2013-09-24 07:53:00,
2013-09-24 04:08:00,46.2,38.0,30.00,NW,313,3.0,-999.0,74,-99.99,,,0.00,weatherlink.com 1.10,2013-09-24 08:08:00,
2013-09-24 04:23:00,46.1,39.0,30.00,NNE,26,0.0,-999.0,75,-99.99,,,0.00,weatherlink.com 1.10,2013-09-24 08:23:00,
2013-09-24 04:38:00,46.2,39.0,30.00,NNE,20,2.0,-999.0,75,-99.99,,,0.00,weatherlink.com 1.10,2013-09-24 08:38:00,
2013-09-24 04:53:00,46.1,39.0,30.00,NNW,335,9.0,-999.0,75,-99.99,,,0.00,weatherlink.com 1.10,2013-09-24 08:53:00,
2013-09-24 05:08:00,46.0,39.0,30.00,North,1,0.0,-999.0,76,-99.99,,,0.00,weatherlink.com 1.10,2013-09-24 09:08:00,
2013-09-24 05:23:00,45.8,39.0,30.00,NW,319,4.0,-999.0,77,-99.99,,,0.00,weatherlink.com 1.10,2013-09-24 09:23:00,
2013-09-24 05:38:00,45.8,39.0,30.00,NW,305,0.0,-999.0,77,-99.99,,,0.00,weatherlink.com 1.10,2013-09-24 09:38:00,
2013-09-24 05:53:00,45.6,39.0,30.00,NE,41,4.0,-999.0,78,-99.99,,,0.00,weatherlink.com 1.10,2013-09-24 09:53:00,
2013-09-24 06:08:00,45.5,39.0,30.00,NW,313,0.0,-999.0,78,-99.99,,,0.00,weatherlink.com 1.10,2013-09-24 10:08:00,
2013-09-24 06:23:00,45.6,39.0,30.00,NW,324,4.0,-999.0,78,-99.99,,,0.00,weatherlink.com 1.10,2013-09-24 10:23:00,
2013-09-24 06:38:00,45.4,39.0,30.00,NW,304,2.0,-999.0,79,-99.99,,,0.00,weatherlink.com 1.10,2013-09-24 10:38:00,
2013-09-24 06:53:00,45.4,39.0,30.00,North,358,6.0,-999.0,78,-99.99,,,0.00,weatherlink.com 1.10,2013-09-24 10:53:00,
2013-09-24 07:08:00,45.5,39.0,30.00,North,359,0.0,-999.0,79,-99.99,,,0.00,weatherlink.com 1.10,2013-09-24 11:08:00,
2013-09-24 07:23:00,45.6,39.0,29.99,NNE,24,4.0,-999.0,78,-99.99,,,0.00,weatherlink.com 1.10,2013-09-24 11:23:00,
2013-09-24 07:38:00,45.7,39.0,29.99,NNE,24,0.0,-999.0,77,-99.99,,,0.00,weatherlink.com 1.10,2013-09-24 11:38:00,
2013-09-24 07:53:00,45.7,39.0,29.98,NW,321,2.0,-999.0,78,-99.99,,,0.00,weatherlink.com 1.10,2013-09-24 11:53:00,
2013-09-24 08:08:00,45.7,40.0,29.99,North,359,5.0,-999.0,79,-99.99,,,0.00,weatherlink.com 1.10,2013-09-24 12:08:00,
2013-09-24 08:23:00,45.9,39.0,29.98,WNW,302,9.0,-999.0,78,-99.99,,,0.00,weatherlink.com 1.10,2013-09-24 12:23:00,
2013-09-24 08:39:00,46.2,40.0,29.98,NNE,28,0.0,-999.0,79,-99.99,,,0.00,weatherlink.com 1.10,2013-09-24 12:39:00,
2013-09-24 08:54:00,46.3,40.0,29.98,NNW,330,2.0,-999.0,79,-99.99,,,0.00,weatherlink.com 1.10,2013-09-24 12:54:00,
2013-09-24 09:09:00,46.5,40.0,29.97,NW,324,4.0,-999.0,78,-99.99,,,0.00,weatherlink.com 1.10,2013-09-24 13:09:00,
2013-09-24 09:24:00,47.4,41.0,29.98,NNW,342,5.0,-999.0,79,-99.99,,,0.00,weatherlink.com 1.10,2013-09-24 13:24:00,
2013-09-24 09:39:00,47.8,41.0,29.97,North,10,2.0,-999.0,76,-99.99,,,0.00,weatherlink.com 1.10,2013-09-24 13:39:00,
2013-09-24 09:54:00,48.9,42.0,29.97,North,360,7.0,-999.0,76,-99.99,,,0.00,weatherlink.com 1.10,2013-09-24 13:54:00,
2013-09-24 10:09:00,50.0,41.0,29.97,NNE,20,10.0,-999.0,72,-99.99,,,0.00,weatherlink.com 1.10,2013-09-24 14:09:00,
2013-09-24 10:24:00,51.2,42.0,29.96,North,1,9.0,-999.0,70,-99.99,,,0.00,weatherlink.com 1.10,2013-09-24 14:24:00,
2013-09-24 10:39:00,51.6,43.0,29.95,North,359,2.0,-999.0,72,-99.99,,,0.00,weatherlink.com 1.10,2013-09-24 14:39:00,
2013-09-24 10:54:00,52.3,42.0,29.96,NE,39,2.0,-999.0,68,-99.99,,,0.00,weatherlink.com 1.10,2013-09-24 14:54:00,
2013-09-24 11:09:00,53.1,44.0,29.95,North,10,4.0,-999.0,70,-99.99,,,0.00,weatherlink.com 1.10,2013-09-24 15:09:00,
2013-09-24 11:24:00,53.4,43.0,29.94,North,10,7.0,-999.0,67,-99.99,,,0.00,weatherlink.com 1.10,2013-09-24 15:24:00,
2013-09-24 11:39:00,54.6,43.0,29.94,North,352,0.0,-999.0,66,-99.99,,,0.00,weatherlink.com 1.10,2013-09-24 15:39:00,
2013-09-24 11:54:00,54.9,44.0,29.93,East,79,2.0,-999.0,67,-99.99,,,0.00,weatherlink.com 1.10,2013-09-24 15:54:00,
2013-09-24 12:09:00,55.3,42.0,29.93,North,355,2.0,-999.0,62,-99.99,,,0.00,weatherlink.com 1.10,2013-09-24 16:09:00,
2013-09-24 12:24:00,55.3,43.0,29.92,NE,56,0.0,-999.0,64,-99.99,,,0.00,weatherlink.com 1.10,2013-09-24 16:24:00,
2013-09-24 12:39:00,56.2,44.0,29.92,NW,305,6.0,-999.0,63,-99.99,,,0.00,weatherlink.com 1.10,2013-09-24 16:39:00,
2013-09-24 12:54:00,56.5,43.0,29.91,North,10,10.0,-999.0,60,-99.99,,,0.00,weatherlink.com 1.10,2013-09-24 16:54:00,
2013-09-24 13:09:00,57.3,44.0,29.91,WNW,296,4.0,-999.0,61,-99.99,,,0.00,weatherlink.com 1.10,2013-09-24 17:09:00,
2013-09-24 13:24:00,58.1,43.0,29.91,ENE,63,0.0,-999.0,58,-99.99,,,0.00,weatherlink.com 1.10,2013-09-24 17:24:00,
2013-09-24 13:39:00,57.6,41.0,29.90,NNW,343,9.0,-999.0,55,-99.99,,,0.00,weatherlink.com 1.10,2013-09-24 17:39:00,
2013-09-24 13:54:00,59.0,44.0,29.90,North,5,6.0,-999.0,57,-99.99,,,0.00,weatherlink.com 1.10,2013-09-24 17:54:00,
2013-09-24 14:09:00,59.3,43.0,29.89,NNW,345,1.0,-999.0,55,-99.99,,,0.00,weatherlink.com 1.10,2013-09-24 18:09:00,
2013-09-24 14:24:00,59.0,41.0,29.89,North,351,0.0,-999.0,51,-99.99,,,0.00,weatherlink.com 1.10,2013-09-24 18:24:00,
2013-09-24 14:40:00,59.5,39.0,29.88,NW,320,14.0,-999.0,47,-99.99,,,0.00,weatherlink.com 1.10,2013-09-24 18:40:00,
2013-09-24 14:55:00,59.6,40.0,29.89,NW,306,8.0,-999.0,49,-99.99,,,0.00,weatherlink.com 1.10,2013-09-24 18:55:00,
2013-09-24 15:10:00,59.0,40.0,29.88,NW,322,9.0,-999.0,50,-99.99,,,0.00,weatherlink.com 1.10,2013-09-24 19:10:00,
2013-09-24 15:25:00,59.4,42.0,29.88,NNW,346,9.0,-999.0,52,-99.99,,,0.00,weatherlink.com 1.10,2013-09-24 19:25:00,
2013-09-24 15:40:00,59.0,41.0,29.89,North,349,8.0,-999.0,52,-99.99,,,0.00,weatherlink.com 1.10,2013-09-24 19:40:00,
2013-09-24 15:55:00,59.5,42.0,29.88,NNW,347,1.0,-999.0,53,-99.99,,,0.00,weatherlink.com 1.10,2013-09-24 19:55:00,
2013-09-24 16:10:00,59.6,42.0,29.89,West,264,3.0,-999.0,52,-99.99,,,0.00,weatherlink.com 1.10,2013-09-24 20:10:00,
2013-09-24 16:25:00,59.0,42.0,29.89,NE,47,3.0,-999.0,53,-99.99,,,0.00,weatherlink.com 1.10,2013-09-24 20:25:00,
2013-09-24 16:40:00,60.0,43.0,29.89,NW,311,0.0,-999.0,53,-99.99,,,0.00,weatherlink.com 1.10,2013-09-24 20:40:00,
2013-09-24 16:55:00,59.0,43.0,29.89,NNW,342,2.0,-999.0,56,-99.99,,,0.00,weatherlink.com 1.10,2013-09-24 20:55:00,
2013-09-24 17:10:00,58.4,43.0,29.89,NNE,25,3.0,-999.0,57,-99.99,,,0.00,weatherlink.com 1.10,2013-09-24 21:10:00,
2013-09-24 17:25:00,57.7,43.0,29.90,NW,324,3.0,-999.0,58,-99.99,,,0.00,weatherlink.com 1.10,2013-09-24 21:25:00,
2013-09-24 17:40:00,57.1,43.0,29.90,NE,36,5.0,-999.0,59,-99.99,,,0.00,weatherlink.com 1.10,2013-09-24 21:40:00,
2013-09-24 17:55:00,56.6,44.0,29.91,NNW,344,3.0,-999.0,63,-99.99,,,0.00,weatherlink.com 1.10,2013-09-24 21:55:00,
2013-09-24 18:10:00,55.9,43.0,29.91,NNE,15,0.0,-999.0,63,-99.99,,,0.00,weatherlink.com 1.10,2013-09-24 22:10:00,
2013-09-24 18:25:00,55.6,43.0,29.92,North,10,0.0,-999.0,64,-99.99,,,0.00,weatherlink.com 1.10,2013-09-24 22:25:00,
2013-09-24 18:40:00,55.1,43.0,29.92,North,353,6.0,-999.0,65,-99.99,,,0.00,weatherlink.com 1.10,2013-09-24 22:40:00,
2013-09-24 18:55:00,54.9,44.0,29.93,North,352,0.0,-999.0,67,-99.99,,,0.00,weatherlink.com 1.10,2013-09-24 22:55:00,
2013-09-24 19:10:00,54.5,44.0,29.93,North,4,0.0,-999.0,68,-99.99,,,0.00,weatherlink.com 1.10,2013-09-24 23:10:00,
2013-09-24 19:25:00,54.2,44.0,29.93,NW,314,0.0,-999.0,68,-99.99,,,0.00,weatherlink.com 1.10,2013-09-24 23:25:00,
2013-09-24 19:40:00,54.1,44.0,29.93,WNW,299,0.0,-999.0,68,-99.99,,,0.00,weatherlink.com 1.10,2013-09-24 23:40:00,
2013-09-24 19:55:00,53.9,43.0,29.93,NW,319,0.0,-999.0,68,-99.99,,,0.00,weatherlink.com 1.10,2013-09-24 23:55:00,
2013-09-24 20:10:00,53.6,44.0,29.93,NW,319,0.0,-999.0,70,-99.99,,,0.00,weatherlink.com 1.10,2013-09-25 00:10:00,
2013-09-24 20:25:00,52.9,44.0,29.93,NW,319,0.0,-999.0,73,-99.99,,,0.00,weatherlink.com 1.10,2013-09-25 00:25:00,
2013-09-24 20:40:00,52.9,44.0,29.93,WNW,301,0.0,-999.0,72,-99.99,,,0.00,weatherlink.com 1.10,2013-09-25 00:40:00,
2013-09-24 20:55:00,53.0,44.0,29.93,NW,305,0.0,-999.0,72,-99.99,,,0.00,weatherlink.com 1.10,2013-09-25 00:55:00,
2013-09-24 21:10:00,52.7,44.0,29.93,NW,305,0.0,-999.0,72,-99.99,,,0.00,weatherlink.com 1.10,2013-09-25 01:10:00,
2013-09-24 21:25:00,52.8,44.0,29.93,NW,321,0.0,-999.0,73,-99.99,,,0.00,weatherlink.com 1.10,2013-09-25 01:25:00,
2013-09-24 21:40:00,51.9,44.0,29.93,NW,321,0.0,-999.0,75,-99.99,,,0.00,weatherlink.com 1.10,2013-09-25 01:40:00,
2013-09-24 21:55:00,51.5,45.0,29.93,NW,321,0.0,-999.0,78,-99.99,,,0.00,weatherlink.com 1.10,2013-09-25 01:55:00,
2013-09-24 22:10:00,51.0,45.0,29.93,NW,321,0.0,-999.0,79,-99.99,,,0.00,weatherlink.com 1.10,2013-09-25 02:10:00,
2013-09-24 22:25:00,50.7,45.0,29.93,NW,313,0.0,-999.0,81,-99.99,,,0.00,weatherlink.com 1.10,2013-09-25 02:25:00,
2013-09-24 22:40:00,50.8,46.0,29.93,NW,313,0.0,-999.0,82,-99.99,,,0.00,weatherlink.com 1.10,2013-09-25 02:40:00,
2013-09-24 22:55:00,51.5,45.0,29.93,WNW,284,0.0,-999.0,77,-99.99,,,0.00,weatherlink.com 1.10,2013-09-25 02:55:00,
2013-09-24 23:10:00,51.0,46.0,29.93,WNW,284,0.0,-999.0,82,-99.99,,,0.00,weatherlink.com 1.10,2013-09-25 03:10:00,
2013-09-24 23:25:00,51.2,45.0,29.93,WNW,284,0.0,-999.0,80,-99.99,,,0.00,weatherlink.com 1.10,2013-09-25 03:25:00,
2013-09-24 23:40:00,50.6,45.0,29.92,WNW,284,0.0,-999.0,82,-99.99,,,0.00,weatherlink.com 1.10,2013-09-25 03:40:00,
2013-09-24 23:55:00,50.5,46.0,29.92,WNW,283,0.0,-999.0,83,-99.99,,,0.00,weatherlink.com 1.10,2013-09-25 03:55:00,